createdAt,value
2018-12-08T00:00:36.344Z,94924.93
2018-12-08T00:01:14.299Z,94929.19
2018-12-08T00:01:52.575Z,94933.37
2018-12-08T00:02:30.751Z,94933.61
2018-12-08T00:03:08.830Z,94924.95
2018-12-08T00:03:46.780Z,94926.95
2018-12-08T00:04:24.728Z,94928.22
2018-12-08T00:05:02.599Z,94932.73
2018-12-08T00:05:40.531Z,94926.93
2018-12-08T00:06:18.387Z,94941.66
2018-12-08T00:06:56.737Z,94933.05
2018-12-08T00:07:34.721Z,94940.48
2018-12-08T00:08:12.750Z,94945.79
2018-12-08T00:08:50.431Z,94935.10
2018-12-08T00:09:28.541Z,94931.98
2018-12-08T00:10:06.241Z,94940.94
2018-12-08T00:10:45.119Z,94943.48
2018-12-08T00:11:23.225Z,94950.61
2018-12-08T00:12:01.033Z,94961.63
2018-12-08T00:12:39.100Z,94959.16
2018-12-08T00:13:17.400Z,94960.50
2018-12-08T00:13:55.372Z,94950.83
2018-12-08T00:14:34.245Z,94960.16
2018-12-08T00:15:12.353Z,94966.33
2018-12-08T00:15:50.341Z,94966.42
2018-12-08T00:16:28.662Z,94973.40
2018-12-08T00:17:06.715Z,94964.30
2018-12-08T00:17:44.843Z,94962.16
2018-12-08T00:18:22.770Z,94973.91
2018-12-08T00:19:00.731Z,94974.58
2018-12-08T00:19:38.860Z,94974.90
2018-12-08T00:20:17.190Z,94987.51
2018-12-08T00:20:54.954Z,94981.17
2018-12-08T00:21:32.724Z,94980.84
2018-12-08T00:22:10.771Z,94976.08
2018-12-08T00:22:48.705Z,94975.99
2018-12-08T00:23:26.711Z,94992.77
2018-12-08T00:24:04.778Z,94983.16
2018-12-08T00:24:42.567Z,94982.11
2018-12-08T00:25:20.429Z,94990.67
2018-12-08T00:25:58.229Z,94990.69
2018-12-08T00:26:36.060Z,94986.16
2018-12-08T00:27:14.125Z,94980.34
2018-12-08T00:27:52.170Z,94981.10
2018-12-08T00:28:30.000Z,94984.02
2018-12-08T00:29:08.000Z,94988.19
2018-12-08T00:29:46.151Z,94994.53
2018-12-08T00:30:23.959Z,95000.94
2018-12-08T00:31:03.087Z,94999.94
2018-12-08T00:31:41.193Z,94994.27
2018-12-08T00:32:19.220Z,94994.84
2018-12-08T00:32:56.969Z,95007.61
2018-12-08T00:33:34.741Z,94988.94
2018-12-08T00:34:12.848Z,94991.69
2018-12-08T00:34:50.719Z,95020.88
2018-12-08T00:35:28.628Z,94995.92
2018-12-08T00:36:06.470Z,95003.70
2018-12-08T00:36:44.502Z,95005.12
2018-12-08T00:37:22.099Z,94998.70
2018-12-08T00:38:00.059Z,95005.19
2018-12-08T00:38:38.059Z,95005.70
2018-12-08T00:39:15.852Z,95015.64
2018-12-08T00:39:53.752Z,95012.78
2018-12-08T00:40:31.718Z,95013.70
2018-12-08T00:41:09.928Z,95011.20
2018-12-08T00:41:48.009Z,95021.22
2018-12-08T00:42:25.799Z,95017.30
2018-12-08T00:43:03.806Z,95023.89
2018-12-08T00:43:41.720Z,95025.05
2018-12-08T00:44:19.938Z,95033.20
2018-12-08T00:44:57.567Z,95035.62
2018-12-08T00:45:35.468Z,95030.22
2018-12-08T00:46:13.418Z,95044.22
2018-12-08T00:46:51.208Z,95042.41
2018-12-08T00:47:29.218Z,95042.06
2018-12-08T00:48:06.873Z,95048.48
2018-12-08T00:48:44.688Z,95052.58
2018-12-08T00:49:22.359Z,95045.59
2018-12-08T00:50:00.458Z,95045.98
2018-12-08T00:50:38.438Z,95057.01
2018-12-08T00:51:16.312Z,95057.59
2018-12-08T00:51:54.428Z,95058.09
2018-12-08T00:52:32.516Z,95068.11
2018-12-08T00:53:10.302Z,95063.92
2018-12-08T00:53:48.367Z,95058.17
2018-12-08T00:54:26.409Z,95068.60
2018-12-08T00:55:04.230Z,95059.27
2018-12-08T00:55:42.227Z,95064.34
2018-12-08T00:56:20.107Z,95058.33
2018-12-08T00:56:58.024Z,95068.67
2018-12-08T00:57:38.168Z,95068.27
2018-12-08T00:58:16.029Z,95073.02
2018-12-08T00:58:53.762Z,95063.94
2018-12-08T00:59:31.648Z,95076.87
2018-12-08T01:00:09.560Z,95083.61
2018-12-08T01:00:47.501Z,95080.36
2018-12-08T01:01:25.517Z,95076.27
2018-12-08T01:02:03.439Z,95078.77
2018-12-08T01:02:41.628Z,95085.52
2018-12-08T01:03:19.488Z,95075.84
2018-12-08T01:03:57.545Z,95087.13
2018-12-08T01:04:35.607Z,95079.35
2018-12-08T01:05:13.798Z,95088.95
2018-12-08T01:05:53.054Z,95084.64
2018-12-08T01:06:31.076Z,95086.80
2018-12-08T01:07:09.130Z,95090.81
2018-12-08T01:07:47.095Z,95091.72
2018-12-08T01:08:24.956Z,95087.30
2018-12-08T01:09:02.776Z,95094.30
2018-12-08T01:09:40.695Z,95101.48
2018-12-08T01:10:18.547Z,95104.47
2018-12-08T01:10:56.666Z,95106.64
2018-12-08T01:11:34.386Z,95110.81
2018-12-08T01:12:12.575Z,95115.13
2018-12-08T01:12:50.468Z,95118.97
2018-12-08T01:13:28.719Z,95122.63
2018-12-08T01:14:06.516Z,95114.98
2018-12-08T01:14:45.078Z,95118.41
2018-12-08T01:15:23.058Z,95120.73
2018-12-08T01:16:01.065Z,95123.97
2018-12-08T01:16:38.995Z,95125.80
2018-12-08T01:17:16.865Z,95126.48
2018-12-08T01:17:54.949Z,95130.48
2018-12-08T01:18:33.220Z,95138.33
2018-12-08T01:19:12.256Z,95139.83
2018-12-08T01:19:50.242Z,95139.74
2018-12-08T01:20:28.337Z,95147.49
2018-12-08T01:21:05.897Z,95144.99
2018-12-08T01:21:44.005Z,95146.64
2018-12-08T01:22:21.886Z,95146.31
2018-12-08T01:22:59.784Z,95148.16
2018-12-08T01:23:37.560Z,95153.00
2018-12-08T01:24:15.704Z,95157.98
2018-12-08T01:24:53.678Z,95154.83
2018-12-08T01:25:31.655Z,95163.59
2018-12-08T01:26:09.946Z,95162.17
2018-12-08T01:26:48.274Z,95164.83
2018-12-08T01:27:26.125Z,95166.58
2018-12-08T01:28:03.970Z,95164.66
2018-12-08T01:28:42.134Z,95169.06
2018-12-08T01:29:20.153Z,95169.98
2018-12-08T01:29:57.912Z,95157.82
2018-12-08T01:30:36.584Z,95162.16
2018-12-08T01:31:14.584Z,95167.01
2018-12-08T01:31:52.890Z,95161.00
2018-12-08T01:32:31.101Z,95159.17
2018-12-08T01:33:09.040Z,95161.17
2018-12-08T01:33:46.849Z,95174.50
2018-12-08T01:34:24.965Z,95161.83
2018-12-08T01:35:02.772Z,95169.00
2018-12-08T01:35:40.678Z,95165.49
2018-12-08T01:36:18.890Z,95171.67
2018-12-08T01:36:57.237Z,95169.42
2018-12-08T01:37:35.018Z,95170.25
2018-12-08T01:38:12.998Z,95166.59
2018-12-08T01:38:51.270Z,95171.66
2018-12-08T01:39:29.416Z,95180.33
2018-12-08T01:40:07.161Z,95175.41
2018-12-08T01:40:44.917Z,95177.41
2018-12-08T01:41:22.769Z,95179.17
2018-12-08T01:42:00.806Z,95184.49
2018-12-08T01:42:38.837Z,95189.00
2018-12-08T01:43:16.877Z,95191.59
2018-12-08T01:43:54.706Z,95188.61
2018-12-08T01:44:32.987Z,95185.16
2018-12-08T01:45:11.158Z,95196.50
2018-12-08T01:45:49.117Z,95190.69
2018-12-08T01:46:26.666Z,95198.36
2018-12-08T01:47:04.541Z,95195.19
2018-12-08T01:47:42.336Z,95198.02
2018-12-08T01:48:20.257Z,95191.86
2018-12-08T01:48:58.135Z,95200.20
2018-12-08T01:49:36.037Z,95201.17
2018-12-08T01:50:13.928Z,95193.02
2018-12-08T01:50:51.598Z,95192.02
2018-12-08T01:51:29.705Z,95207.02
2018-12-08T01:52:07.555Z,95204.69
2018-12-08T01:52:45.439Z,95197.03
2018-12-08T01:53:23.806Z,95204.28
2018-12-08T01:54:01.631Z,95204.52
2018-12-08T01:54:39.694Z,95202.77
2018-12-08T01:55:17.990Z,95204.69
2018-12-08T01:55:55.948Z,95196.18
2018-12-08T01:56:33.814Z,95202.44
2018-12-08T01:57:11.584Z,95197.44
2018-12-08T01:57:49.454Z,95200.17
2018-12-08T01:58:27.283Z,95203.67
2018-12-08T01:59:05.425Z,95201.86
2018-12-08T01:59:43.417Z,95202.94
2018-12-08T02:00:22.025Z,95204.52
2018-12-08T02:01:00.094Z,95196.36
2018-12-08T02:01:38.034Z,95203.78
2018-12-08T02:02:16.073Z,95200.01
2018-12-08T02:02:54.325Z,95208.70
2018-12-08T02:03:32.285Z,95203.03
2018-12-08T02:04:10.263Z,95200.70
2018-12-08T02:04:48.055Z,95204.17
2018-12-08T02:05:26.086Z,95203.84
2018-12-08T02:06:03.854Z,95203.34
2018-12-08T02:06:42.533Z,95205.53
2018-12-08T02:07:20.671Z,95209.53
2018-12-08T02:07:58.563Z,95214.28
2018-12-08T02:08:36.482Z,95214.84
2018-12-08T02:09:14.570Z,95214.18
2018-12-08T02:09:52.914Z,95217.70
2018-12-08T02:10:30.734Z,95213.86
2018-12-08T02:11:08.734Z,95208.03
2018-12-08T02:11:46.505Z,95213.36
2018-12-08T02:12:24.453Z,95207.19
2018-12-08T02:13:02.413Z,95219.37
2018-12-08T02:13:40.384Z,95216.86
2018-12-08T02:14:17.942Z,95220.63
2018-12-08T02:14:55.531Z,95220.88
2018-12-08T02:15:33.075Z,95223.88
2018-12-08T02:16:10.748Z,95223.12
2018-12-08T02:16:48.762Z,95232.53
2018-12-08T02:17:26.722Z,95230.86
2018-12-08T02:18:04.601Z,95232.63
2018-12-08T02:18:42.973Z,95226.85
2018-12-08T02:19:21.051Z,95226.70
2018-12-08T02:20:00.502Z,95236.03
2018-12-08T02:20:38.370Z,95243.27
2018-12-08T02:21:16.532Z,95235.77
2018-12-08T02:21:54.464Z,95239.53
2018-12-08T02:22:32.245Z,95237.30
2018-12-08T02:23:10.337Z,95236.45
2018-12-08T02:23:48.543Z,95238.60
2018-12-08T02:24:26.364Z,95241.27
2018-12-08T02:25:04.301Z,95234.52
2018-12-08T02:25:42.626Z,95241.95
2018-12-08T02:26:20.681Z,95238.63
2018-12-08T02:26:58.810Z,95240.44
2018-12-08T02:27:36.420Z,95235.86
2018-12-08T02:28:14.210Z,95243.53
2018-12-08T02:28:52.029Z,95247.13
2018-12-08T02:29:30.069Z,95246.19
2018-12-08T02:30:08.570Z,95253.11
2018-12-08T02:30:46.560Z,95253.55
2018-12-08T02:31:24.320Z,95244.30
2018-12-08T02:32:02.420Z,95242.63
2018-12-08T02:32:40.201Z,95246.38
2018-12-08T02:33:17.969Z,95241.36
2018-12-08T02:33:56.045Z,95248.53
2018-12-08T02:34:35.249Z,95248.77
2018-12-08T02:35:13.638Z,95248.77
2018-12-08T02:35:51.605Z,95251.55
2018-12-08T02:36:29.682Z,95247.72
2018-12-08T02:37:07.426Z,95255.55
2018-12-08T02:37:45.322Z,95259.55
2018-12-08T02:38:23.308Z,95265.89
2018-12-08T02:39:01.412Z,95261.53
2018-12-08T02:39:39.538Z,95266.05
2018-12-08T02:40:17.798Z,95264.86
2018-12-08T02:40:55.773Z,95262.54
2018-12-08T02:41:34.261Z,95271.20
2018-12-08T02:42:12.136Z,95269.22
2018-12-08T02:42:50.042Z,95277.05
2018-12-08T02:43:27.839Z,95267.20
2018-12-08T02:44:05.660Z,95265.47
2018-12-08T02:44:43.717Z,95277.39
2018-12-08T02:45:21.396Z,95283.12
2018-12-08T02:45:59.448Z,95292.55
2018-12-08T02:46:37.449Z,95282.47
2018-12-08T02:47:15.128Z,95287.13
2018-12-08T02:47:53.322Z,95276.61
2018-12-08T02:48:30.993Z,95281.20
2018-12-08T02:49:09.014Z,95283.20
2018-12-08T02:49:46.840Z,95288.05
2018-12-08T02:50:24.856Z,95275.45
2018-12-08T02:51:03.580Z,95276.20
2018-12-08T02:51:41.710Z,95279.39
2018-12-08T02:52:19.789Z,95275.20
2018-12-08T02:52:57.747Z,95282.38
2018-12-08T02:53:35.508Z,95278.28
2018-12-08T02:54:13.349Z,95271.72
2018-12-08T02:54:52.105Z,95279.22
2018-12-08T02:55:30.345Z,95276.95
2018-12-08T02:56:08.569Z,95279.28
2018-12-08T02:56:46.728Z,95282.79
2018-12-08T02:57:24.623Z,95278.78
2018-12-08T02:58:02.475Z,95276.80
2018-12-08T02:58:40.395Z,95287.38
2018-12-08T02:59:18.613Z,95278.55
2018-12-08T02:59:56.336Z,95284.38
2018-12-08T03:00:34.446Z,95281.71
2018-12-08T03:01:12.479Z,95286.54
2018-12-08T03:01:50.491Z,95292.20
2018-12-08T03:02:28.586Z,95290.87
2018-12-08T03:03:06.451Z,95288.38
2018-12-08T03:03:44.108Z,95291.11
2018-12-08T03:04:22.227Z,95282.70
2018-12-08T03:05:00.054Z,95292.37
2018-12-08T03:05:38.803Z,95286.45
2018-12-08T03:06:16.604Z,95288.64
2018-12-08T03:06:54.343Z,95294.05
2018-12-08T03:07:32.552Z,95298.05
2018-12-08T03:08:10.890Z,95301.03
2018-12-08T03:08:49.076Z,95293.47
2018-12-08T03:09:27.066Z,95301.36
2018-12-08T03:10:05.075Z,95299.36
2018-12-08T03:10:43.447Z,95293.86
2018-12-08T03:11:21.273Z,95296.36
2018-12-08T03:11:59.773Z,95296.89
2018-12-08T03:12:37.765Z,95307.87
2018-12-08T03:13:16.120Z,95303.64
2018-12-08T03:13:54.164Z,95297.47
2018-12-08T03:14:32.361Z,95297.53
2018-12-08T03:15:10.838Z,95300.70
2018-12-08T03:15:49.123Z,95306.37
2018-12-08T03:16:27.075Z,95300.20
2018-12-08T03:17:04.854Z,95310.78
2018-12-08T03:17:42.876Z,95305.22
2018-12-08T03:18:20.831Z,95302.64
2018-12-08T03:18:59.061Z,95298.11
2018-12-08T03:19:37.201Z,95305.03
2018-12-08T03:20:15.142Z,95302.29
2018-12-08T03:20:52.950Z,95303.45
2018-12-08T03:21:30.915Z,95306.86
2018-12-08T03:22:09.141Z,95303.20
2018-12-08T03:22:47.724Z,95308.53
2018-12-08T03:23:25.541Z,95307.88
2018-12-08T03:24:03.686Z,95297.38
2018-12-08T03:24:41.528Z,95305.87
2018-12-08T03:25:19.616Z,95308.13
2018-12-08T03:25:57.662Z,95313.87
2018-12-08T03:26:35.843Z,95307.88
2018-12-08T03:27:13.957Z,95306.38
2018-12-08T03:27:51.822Z,95307.63
2018-12-08T03:28:29.592Z,95307.05
2018-12-08T03:29:07.330Z,95306.47
2018-12-08T03:29:45.273Z,95307.11
2018-12-08T03:30:23.456Z,95305.27
2018-12-08T03:31:01.546Z,95315.05
2018-12-08T03:31:39.717Z,95308.79
2018-12-08T03:32:17.737Z,95306.71
2018-12-08T03:32:55.705Z,95314.72
2018-12-08T03:33:33.805Z,95312.54
2018-12-08T03:34:11.713Z,95315.80
2018-12-08T03:34:49.822Z,95320.45
2018-12-08T03:35:27.667Z,95322.38
2018-12-08T03:36:05.688Z,95322.13
2018-12-08T03:36:43.514Z,95322.95
2018-12-08T03:37:21.622Z,95325.97
2018-12-08T03:37:59.567Z,95326.13
2018-12-08T03:38:37.454Z,95326.05
2018-12-08T03:39:15.527Z,95326.22
2018-12-08T03:39:53.655Z,95326.30
2018-12-08T03:40:31.716Z,95328.29
2018-12-08T03:41:09.665Z,95334.63
2018-12-08T03:41:47.537Z,95328.80
2018-12-08T03:42:25.665Z,95345.13
2018-12-08T03:43:03.247Z,95325.05
2018-12-08T03:43:41.342Z,95331.05
2018-12-08T03:44:19.339Z,95331.72
2018-12-08T03:44:57.195Z,95326.70
2018-12-08T03:45:35.110Z,95322.21
2018-12-08T03:46:13.007Z,95339.62
2018-12-08T03:46:50.886Z,95318.62
2018-12-08T03:47:28.816Z,95333.96
2018-12-08T03:48:06.770Z,95330.70
2018-12-08T03:48:45.226Z,95327.70
2018-12-08T03:49:23.257Z,95326.05
2018-12-08T03:50:01.597Z,95327.71
2018-12-08T03:50:40.687Z,95324.30
2018-12-08T03:51:18.661Z,95339.55
2018-12-08T03:51:56.547Z,95337.70
2018-12-08T03:52:34.496Z,95338.70
2018-12-08T03:53:12.335Z,95334.38
2018-12-08T03:53:50.300Z,95335.22
2018-12-08T03:54:28.312Z,95338.05
2018-12-08T03:55:06.210Z,95337.55
2018-12-08T03:55:45.045Z,95340.21
2018-12-08T03:56:23.298Z,95340.20
2018-12-08T03:57:01.528Z,95339.45
2018-12-08T03:57:39.557Z,95336.87
2018-12-08T03:58:18.466Z,95338.55
2018-12-08T03:58:56.339Z,95332.80
2018-12-08T03:59:34.236Z,95342.47
2018-12-08T04:00:12.603Z,95340.55
2018-12-08T04:00:50.800Z,95344.39
2018-12-08T04:01:28.689Z,95344.63
2018-12-08T04:02:06.779Z,95346.13
2018-12-08T04:02:44.850Z,95346.80
2018-12-08T04:03:22.869Z,95360.21
2018-12-08T04:04:00.748Z,95346.14
2018-12-08T04:04:38.998Z,95345.20
2018-12-08T04:05:16.820Z,95355.53
2018-12-08T04:05:54.891Z,95340.03
2018-12-08T04:06:32.999Z,95341.70
2018-12-08T04:07:11.033Z,95343.03
2018-12-08T04:07:49.208Z,95341.79
2018-12-08T04:08:27.548Z,95343.80
2018-12-08T04:09:05.643Z,95347.38
2018-12-08T04:09:43.459Z,95353.86
2018-12-08T04:10:21.255Z,95357.36
2018-12-08T04:10:59.031Z,95372.89
2018-12-08T04:11:36.829Z,95359.96
2018-12-08T04:12:14.870Z,95364.48
2018-12-08T04:12:52.926Z,95370.88
2018-12-08T04:13:30.519Z,95377.88
2018-12-08T04:14:08.359Z,95383.97
2018-12-08T04:14:46.391Z,95378.72
2018-12-08T04:15:23.910Z,95382.80
2018-12-08T04:16:02.450Z,95375.22
2018-12-08T04:16:40.229Z,95379.72
2018-12-08T04:17:18.359Z,95380.55
2018-12-08T04:17:56.453Z,95384.89
2018-12-08T04:18:34.340Z,95373.53
2018-12-08T04:19:12.381Z,95385.05
2018-12-08T04:19:50.210Z,95374.61
2018-12-08T04:20:28.384Z,95375.70
2018-12-08T04:21:06.522Z,95376.70
2018-12-08T04:21:44.560Z,95374.79
2018-12-08T04:22:22.684Z,95373.04
2018-12-08T04:23:00.662Z,95374.45
2018-12-08T04:23:38.930Z,95381.70
2018-12-08T04:24:17.962Z,95380.20
2018-12-08T04:24:56.041Z,95380.28
2018-12-08T04:25:33.770Z,95387.53
2018-12-08T04:26:11.779Z,95385.53
2018-12-08T04:26:49.584Z,95394.28
2018-12-08T04:27:27.640Z,95393.20
2018-12-08T04:28:05.421Z,95388.80
2018-12-08T04:28:43.495Z,95391.38
2018-12-08T04:29:21.603Z,95392.79
2018-12-08T04:29:59.539Z,95393.55
2018-12-08T04:30:37.374Z,95397.13
2018-12-08T04:31:15.300Z,95391.80
2018-12-08T04:31:53.236Z,95395.71
2018-12-08T04:32:31.125Z,95392.60
2018-12-08T04:33:09.087Z,95390.84
2018-12-08T04:33:47.332Z,95397.05
2018-12-08T04:34:25.332Z,95382.69
2018-12-08T04:35:03.435Z,95390.52
2018-12-08T04:35:41.753Z,95392.63
2018-12-08T04:36:19.683Z,95397.19
2018-12-08T04:36:57.582Z,95387.30
2018-12-08T04:37:35.712Z,95396.38
2018-12-08T04:38:13.585Z,95391.04
2018-12-08T04:38:51.264Z,95388.38
2018-12-08T04:39:29.133Z,95383.88
2018-12-08T04:40:07.649Z,95390.95
2018-12-08T04:40:45.824Z,95382.37
2018-12-08T04:41:24.186Z,95384.63
2018-12-08T04:42:02.424Z,95383.88
2018-12-08T04:42:40.184Z,95386.70
2018-12-08T04:43:18.012Z,95385.54
2018-12-08T04:43:55.886Z,95393.04
2018-12-08T04:44:34.079Z,95390.46
2018-12-08T04:45:12.090Z,95384.20
2018-12-08T04:45:50.027Z,95386.54
2018-12-08T04:46:28.098Z,95385.28
2018-12-08T04:47:05.946Z,95385.95
2018-12-08T04:47:44.033Z,95390.28
2018-12-08T04:48:21.955Z,95387.87
2018-12-08T04:49:00.023Z,95392.05
2018-12-08T04:49:37.836Z,95392.29
2018-12-08T04:50:15.606Z,95397.28
2018-12-08T04:50:53.427Z,95395.28
2018-12-08T04:51:31.409Z,95388.30
2018-12-08T04:52:09.127Z,95396.19
2018-12-08T04:52:46.996Z,95398.52
2018-12-08T04:53:24.857Z,95395.52
2018-12-08T04:54:02.808Z,95396.80
2018-12-08T04:54:40.917Z,95393.27
2018-12-08T04:55:19.148Z,95393.88
2018-12-08T04:55:57.247Z,95399.13
2018-12-08T04:56:35.987Z,95400.38
2018-12-08T04:57:13.809Z,95394.38
2018-12-08T04:57:51.748Z,95385.35
2018-12-08T04:58:29.928Z,95400.29
2018-12-08T04:59:08.129Z,95401.62
2018-12-08T04:59:46.510Z,95400.38
2018-12-08T05:00:24.559Z,95388.19
2018-12-08T05:01:02.579Z,95391.94
2018-12-08T05:01:40.714Z,95379.19
2018-12-08T05:02:18.645Z,95385.70
2018-12-08T05:02:56.570Z,95384.45
2018-12-08T05:03:34.744Z,95391.53
2018-12-08T05:04:12.750Z,95396.70
2018-12-08T05:04:50.732Z,95391.88
2018-12-08T05:05:28.801Z,95397.21
2018-12-08T05:06:06.760Z,95387.44
2018-12-08T05:06:44.700Z,95385.52
2018-12-08T05:07:22.792Z,95382.70
2018-12-08T05:08:00.781Z,95392.03
2018-12-08T05:08:38.865Z,95384.20
2018-12-08T05:09:17.084Z,95385.86
2018-12-08T05:09:55.146Z,95382.77
2018-12-08T05:10:32.932Z,95383.69
2018-12-08T05:11:11.070Z,95383.11
2018-12-08T05:11:48.981Z,95382.52
2018-12-08T05:12:26.853Z,95384.19
2018-12-08T05:13:04.985Z,95391.45
2018-12-08T05:13:42.803Z,95391.04
2018-12-08T05:14:21.008Z,95385.13
2018-12-08T05:14:59.063Z,95390.95
2018-12-08T05:15:37.064Z,95393.52
2018-12-08T05:16:14.963Z,95387.70
2018-12-08T05:16:53.138Z,95391.34
2018-12-08T05:17:31.043Z,95392.69
2018-12-08T05:18:09.174Z,95391.02
2018-12-08T05:18:47.159Z,95396.85
2018-12-08T05:19:24.933Z,95398.19
2018-12-08T05:20:03.583Z,95403.77
2018-12-08T05:20:41.749Z,95398.19
2018-12-08T05:21:20.028Z,95398.36
2018-12-08T05:21:57.863Z,95397.11
2018-12-08T05:22:35.875Z,95396.94
2018-12-08T05:23:13.960Z,95400.86
2018-12-08T05:23:52.394Z,95396.20
2018-12-08T05:24:30.636Z,95401.03
2018-12-08T05:25:08.806Z,95403.61
2018-12-08T05:25:47.611Z,95399.61
2018-12-08T05:26:25.490Z,95405.61
2018-12-08T05:27:03.747Z,95401.35
2018-12-08T05:27:41.660Z,95400.36
2018-12-08T05:28:19.926Z,95397.85
2018-12-08T05:28:58.167Z,95406.19
2018-12-08T05:29:36.006Z,95400.02
2018-12-08T05:30:13.857Z,95405.69
2018-12-08T05:30:52.266Z,95400.69
2018-12-08T05:31:30.160Z,95403.36
2018-12-08T05:32:08.116Z,95401.09
2018-12-08T05:32:45.980Z,95407.53
2018-12-08T05:33:24.040Z,95403.20
2018-12-08T05:34:02.087Z,95408.17
2018-12-08T05:34:40.067Z,95411.75
2018-12-08T05:35:18.464Z,95417.75
2018-12-08T05:35:56.359Z,95413.34
2018-12-08T05:36:34.131Z,95415.59
2018-12-08T05:37:12.267Z,95410.87
2018-12-08T05:37:49.927Z,95423.11
2018-12-08T05:38:27.998Z,95424.86
2018-12-08T05:39:06.129Z,95416.03
2018-12-08T05:39:43.812Z,95416.78
2018-12-08T05:40:22.128Z,95416.95
2018-12-08T05:40:59.800Z,95409.36
2018-12-08T05:41:37.891Z,95412.28
2018-12-08T05:42:15.969Z,95414.35
2018-12-08T05:42:53.611Z,95416.80
2018-12-08T05:43:31.588Z,95417.60
2018-12-08T05:44:09.479Z,95406.38
2018-12-08T05:44:47.204Z,95412.86
2018-12-08T05:45:25.488Z,95414.70
2018-12-08T05:46:03.507Z,95394.09
2018-12-08T05:46:41.550Z,95405.95
2018-12-08T05:47:19.541Z,95403.77
2018-12-08T05:47:57.409Z,95407.19
2018-12-08T05:48:35.298Z,95402.52
2018-12-08T05:49:13.062Z,95407.27
2018-12-08T05:49:51.088Z,95409.77
2018-12-08T05:50:29.029Z,95401.61
2018-12-08T05:51:06.887Z,95409.11
2018-12-08T05:51:45.123Z,95407.34
2018-12-08T05:52:23.019Z,95409.76
2018-12-08T05:53:01.029Z,95417.86
2018-12-08T05:53:38.718Z,95413.53
2018-12-08T05:54:16.567Z,95413.20
2018-12-08T05:54:54.327Z,95430.03
2018-12-08T05:55:32.427Z,95408.36
2018-12-08T05:56:10.196Z,95411.76
2018-12-08T05:56:48.474Z,95416.17
2018-12-08T05:57:26.766Z,95410.45
2018-12-08T05:58:04.776Z,95413.78
2018-12-08T05:58:42.617Z,95415.86
2018-12-08T05:59:20.759Z,95414.11
2018-12-08T05:59:59.003Z,95414.11
2018-12-08T06:00:36.828Z,95410.53
2018-12-08T06:01:14.448Z,95406.61
2018-12-08T06:01:52.826Z,95407.11
2018-12-08T06:02:30.486Z,95409.77
2018-12-08T06:03:08.432Z,95407.86
2018-12-08T06:03:46.385Z,95402.86
2018-12-08T06:04:24.366Z,95401.77
2018-12-08T06:05:02.261Z,95403.02
2018-12-08T06:05:39.956Z,95401.70
2018-12-08T06:06:17.986Z,95408.36
2018-12-08T06:06:55.865Z,95404.34
2018-12-08T06:07:33.857Z,95409.34
2018-12-08T06:08:11.631Z,95401.34
2018-12-08T06:08:49.568Z,95398.75
2018-12-08T06:09:27.396Z,95399.75
2018-12-08T06:10:05.092Z,95390.78
2018-12-08T06:10:43.308Z,95395.86
2018-12-08T06:11:21.134Z,95404.44
2018-12-08T06:11:59.294Z,95396.11
2018-12-08T06:12:37.376Z,95403.03
2018-12-08T06:13:15.216Z,95397.86
2018-12-08T06:13:53.260Z,95405.67
2018-12-08T06:14:30.835Z,95397.17
2018-12-08T06:15:08.965Z,95401.00
2018-12-08T06:15:47.034Z,95401.09
2018-12-08T06:16:24.978Z,95399.34
2018-12-08T06:17:03.148Z,95397.00
2018-12-08T06:17:41.456Z,95400.25
2018-12-08T06:18:19.819Z,95403.25
2018-12-08T06:18:57.564Z,95400.86
2018-12-08T06:19:35.508Z,95402.70
2018-12-08T06:20:13.684Z,95398.70
2018-12-08T06:20:51.575Z,95410.37
2018-12-08T06:21:29.524Z,95399.00
2018-12-08T06:22:07.805Z,95399.84
2018-12-08T06:22:45.571Z,95399.61
2018-12-08T06:23:23.569Z,95401.11
2018-12-08T06:24:01.605Z,95403.28
2018-12-08T06:24:39.434Z,95398.02
2018-12-08T06:25:18.024Z,95399.61
2018-12-08T06:25:56.018Z,95400.53
2018-12-08T06:26:33.893Z,95402.86
2018-12-08T06:27:12.208Z,95404.03
2018-12-08T06:27:50.246Z,95391.26
2018-12-08T06:28:28.497Z,95396.50
2018-12-08T06:29:06.428Z,95391.51
2018-12-08T06:29:44.325Z,95403.45
2018-12-08T06:30:22.555Z,95400.53
2018-12-08T06:31:00.733Z,95401.03
2018-12-08T06:31:38.962Z,95396.42
2018-12-08T06:32:17.140Z,95396.59
2018-12-08T06:32:54.964Z,95398.43
2018-12-08T06:33:33.188Z,95396.59
2018-12-08T06:34:11.337Z,95386.86
2018-12-08T06:34:48.996Z,95401.59
2018-12-08T06:35:26.758Z,95399.02
2018-12-08T06:36:04.703Z,95399.09
2018-12-08T06:36:42.373Z,95384.51
2018-12-08T06:37:20.471Z,95395.59
2018-12-08T06:37:58.377Z,95393.84
2018-12-08T06:38:36.573Z,95393.77
2018-12-08T06:39:14.747Z,95392.85
2018-12-08T06:39:52.762Z,95394.69
2018-12-08T06:40:30.534Z,95395.85
2018-12-08T06:41:08.501Z,95396.77
2018-12-08T06:41:46.698Z,95391.43
2018-12-08T06:42:24.697Z,95405.27
2018-12-08T06:43:02.593Z,95400.67
2018-12-08T06:43:40.677Z,95385.69
2018-12-08T06:44:18.572Z,95402.51
2018-12-08T06:44:56.872Z,95401.01
2018-12-08T06:45:35.102Z,95399.50
2018-12-08T06:46:13.014Z,95393.92
2018-12-08T06:46:51.233Z,95397.84
2018-12-08T06:47:29.291Z,95396.09
2018-12-08T06:48:07.452Z,95397.98
2018-12-08T06:48:45.244Z,95389.98
2018-12-08T06:49:23.272Z,95396.73
2018-12-08T06:50:01.429Z,95394.66
2018-12-08T06:50:39.207Z,95397.52
2018-12-08T06:51:17.239Z,95395.66
2018-12-08T06:51:55.314Z,95393.33
2018-12-08T06:52:33.343Z,95395.41
2018-12-08T06:53:11.555Z,95394.98
2018-12-08T06:53:49.206Z,95390.09
2018-12-08T06:54:27.353Z,95399.08
2018-12-08T06:55:05.578Z,95389.73
2018-12-08T06:55:43.417Z,95387.33
2018-12-08T06:56:21.384Z,95391.08
2018-12-08T06:56:59.434Z,95391.85
2018-12-08T06:57:37.325Z,95386.33
2018-12-08T06:58:15.193Z,95387.94
2018-12-08T06:58:53.332Z,95388.69
2018-12-08T06:59:31.436Z,95386.75
2018-12-08T07:00:09.702Z,95387.58
2018-12-08T07:00:47.826Z,95385.69
2018-12-08T07:01:25.754Z,95386.10
2018-12-08T07:02:03.436Z,95390.19
2018-12-08T07:02:41.887Z,95379.91
2018-12-08T07:03:20.048Z,95383.50
2018-12-08T07:03:57.835Z,95385.33
2018-12-08T07:04:35.537Z,95380.94
2018-12-08T07:05:13.657Z,95380.02
2018-12-08T07:05:51.626Z,95381.91
2018-12-08T07:06:29.761Z,95377.77
2018-12-08T07:07:07.688Z,95384.44
2018-12-08T07:07:45.767Z,95377.36
2018-12-08T07:08:23.689Z,95382.41
2018-12-08T07:09:01.458Z,95379.60
2018-12-08T07:09:39.378Z,95378.69
2018-12-08T07:10:17.696Z,95386.44
2018-12-08T07:10:55.666Z,95382.52
2018-12-08T07:11:33.722Z,95391.02
2018-12-08T07:12:11.868Z,95388.77
2018-12-08T07:12:49.682Z,95383.27
2018-12-08T07:13:27.669Z,95394.02
2018-12-08T07:14:05.479Z,95397.35
2018-12-08T07:14:43.607Z,95384.91
2018-12-08T07:15:21.887Z,95385.75
2018-12-08T07:15:59.961Z,95386.16
2018-12-08T07:16:37.833Z,95392.24
2018-12-08T07:17:15.868Z,95397.99
2018-12-08T07:17:54.408Z,95392.23
2018-12-08T07:18:32.258Z,95399.08
2018-12-08T07:19:10.319Z,95396.66
2018-12-08T07:19:48.191Z,95401.33
2018-12-08T07:20:26.069Z,95395.66
2018-12-08T07:21:04.264Z,95399.74
2018-12-08T07:21:42.232Z,95403.41
2018-12-08T07:22:20.535Z,95406.73
2018-12-08T07:22:58.559Z,95401.41
2018-12-08T07:23:36.579Z,95405.57
2018-12-08T07:24:14.442Z,95408.35
2018-12-08T07:24:52.100Z,95400.74
2018-12-08T07:25:30.110Z,95401.91
2018-12-08T07:26:08.021Z,95404.77
2018-12-08T07:26:46.459Z,95406.84